Time;durP1;ratioP1;P1;durP2;ratioP2;P2;SDS_P1;SDS_P2;PMS_P1;PMS_P2;Temp;Humidity;BMP_temperature;BMP_pressure;BME280_temperature;BME280_humidity;BME280_pressure;Samples;Min_cycle;Max_cycle;Signal;HPM_P1;HPM_P2
2022/10/22 00:00:50;;;;;;;1.35;0.57;;;;;;;10.89;97.84;100073.19;4833338;29;20093;-73
2022/10/22 00:03:19;;;;;;;0.88;0.63;;;;;;;10.94;97.98;100071.53;4833249;29;20066;-73
2022/10/22 00:05:48;;;;;;;2.03;0.68;;;;;;;10.99;98.13;100069.91;4834191;29;20060;-73
2022/10/22 00:08:17;;;;;;;1.15;0.63;;;;;;;11.03;97.43;100058.75;4837947;29;20046;-72
2022/10/22 00:10:45;;;;;;;2.00;0.75;;;;;;;11.06;97.27;100040.69;4837911;29;20114;-73
2022/10/22 00:13:14;;;;;;;1.30;0.50;;;;;;;11.03;96.80;100035.44;4837140;29;20102;-74
2022/10/22 00:15:44;;;;;;;4.53;0.68;;;;;;;11.08;97.91;100070.03;4844207;29;20050;-72
2022/10/22 00:18:13;;;;;;;2.50;0.60;;;;;;;11.09;97.98;100058.00;4842208;29;20060;-78
2022/10/22 00:20:42;;;;;;;0.60;0.40;;;;;;;11.07;98.14;100031.22;4842900;29;20058;-75
2022/10/22 00:23:10;;;;;;;1.38;0.52;;;;;;;11.08;99.49;100038.97;4837505;29;20050;-75
2022/10/22 00:25:39;;;;;;;1.27;0.50;;;;;;;11.11;100.00;100023.50;4834768;29;20046;-76
2022/10/22 00:28:07;;;;;;;0.95;0.60;;;;;;;11.15;99.51;100011.47;4828693;29;20169;-78
2022/10/22 00:30:43;;;;;;;1.67;0.50;;;;;;;11.13;97.57;99996.75;4840229;29;20053;-77
2022/10/22 00:33:13;;;;;;;0.65;0.32;;;;;;;11.08;97.32;100002.72;4828010;29;20061;-78
2022/10/22 00:35:41;;;;;;;0.68;0.40;;;;;;;11.09;98.16;100001.91;4833940;29;20442;-77
2022/10/22 00:38:10;;;;;;;0.82;0.30;;;;;;;11.10;98.96;99993.28;4841273;29;20058;-78
2022/10/22 00:40:38;;;;;;;1.30;0.40;;;;;;;11.15;99.05;100008.00;4842153;29;20049;-77
2022/10/22 00:43:07;;;;;;;1.48;0.43;;;;;;;11.17;98.04;100003.72;4839960;29;20076;-80
2022/10/22 00:45:36;;;;;;;1.13;0.75;;;;;;;11.19;98.23;99983.91;4836534;29;20051;-83
2022/10/22 00:48:07;;;;;;;1.98;0.55;;;;;;;11.18;97.50;99974.38;4836608;29;20054;-78
2022/10/22 00:50:40;;;;;;;0.60;0.40;;;;;;;11.16;98.15;99976.97;4829901;29;20057;-77
2022/10/22 00:53:13;;;;;;;0.90;0.60;;;;;;;11.18;97.97;99979.56;4838240;29;20050;-79
2022/10/22 00:55:44;;;;;;;2.38;0.82;;;;;;;11.19;98.43;99961.47;4836685;29;20552;-78
2022/10/22 00:58:14;;;;;;;0.52;0.47;;;;;;;11.21;98.65;99948.56;4838364;29;20405;-79
2022/10/22 01:00:43;;;;;;;0.57;0.47;;;;;;;11.22;97.55;99945.09;4838354;29;20072;-79
2022/10/22 01:03:12;;;;;;;1.42;1.00;;;;;;;11.24;97.30;99914.94;4841215;29;20046;-78
2022/10/22 01:05:47;;;;;;;0.82;0.43;;;;;;;11.25;97.03;99908.91;4841300;29;20054;-82
2022/10/22 01:08:25;;;;;;;3.13;0.70;;;;;;;11.25;96.69;99895.97;4842302;29;20497;-82
2022/10/22 01:11:07;;;;;;;3.70;0.93;;;;;;;11.24;97.17;99873.50;4841056;29;20050;-82
2022/10/22 01:13:48;;;;;;;1.50;0.90;;;;;;;11.22;97.08;99870.00;4843211;29;20050;-85
2022/10/22 01:16:22;;;;;;;1.50;0.80;;;;;;;11.21;96.98;99883.81;4841213;29;20049;-77
2022/10/22 01:19:02;;;;;;;1.50;1.10;;;;;;;11.19;96.35;99868.25;4841838;29;20572;-87
2022/10/22 01:21:37;;;;;;;1.75;0.93;;;;;;;11.18;96.46;99857.88;4830555;29;20504;-83
2022/10/22 01:24:32;;;;;;;1.63;1.17;;;;;;;11.16;97.09;99844.06;4832543;29;20058;-88
2022/10/22 01:27:20;;;;;;;1.33;0.80;;;;;;;11.16;97.31;99833.72;4845245;29;20109;-82
2022/10/22 01:29:54;;;;;;;4.28;1.48;;;;;;;11.10;97.35;99814.63;4838528;29;20102;-77
2022/10/22 01:32:26;;;;;;;3.38;1.65;;;;;;;11.15;97.62;99806.06;4836733;29;20077;-78
2022/10/22 01:34:59;;;;;;;2.08;1.17;;;;;;;11.11;96.93;99806.03;4834827;29;20106;-77
2022/10/22 01:37:31;;;;;;;1.20;0.90;;;;;;;11.08;97.14;99800.81;4840346;29;20057;-85
2022/10/22 01:40:02;;;;;;;1.77;1.27;;;;;;;11.10;97.82;99804.28;4844201;29;20579;-81
2022/10/22 01:42:30;;;;;;;1.45;1.10;;;;;;;11.09;98.08;99792.19;4838721;29;20093;-83
2022/10/22 01:45:00;;;;;;;2.28;0.82;;;;;;;11.07;97.73;99791.31;4842735;29;20053;-84
2022/10/22 01:47:40;;;;;;;1.40;0.95;;;;;;;11.03;97.63;99781.75;4844911;29;20052;-77
2022/10/22 01:50:47;;;;;;;2.25;1.48;;;;;;;11.00;98.15;99767.94;4846161;29;20073;-83
2022/10/22 01:53:26;;;;;;;2.15;1.45;;;;;;;10.95;99.11;99762.69;4840747;29;20549;-83
2022/10/22 01:56:05;;;;;;;4.63;1.73;;;;;;;10.92;99.97;99749.69;4837555;29;20159;-77
2022/10/22 01:58:47;;;;;;;2.42;1.60;;;;;;;10.92;100.00;99762.63;4844334;29;20574;-85
2022/10/22 02:01:25;;;;;;;3.08;2.05;;;;;;;10.92;100.00;99747.13;4835503;29;20543;-85
2022/10/22 02:04:01;;;;;;;3.08;1.35;;;;;;;10.88;100.00;99729.81;4840982;29;20054;-83
2022/10/22 02:06:32;;;;;;;3.38;2.08;;;;;;;10.86;100.00;99740.16;4845089;29;20098;-80
2022/10/22 02:09:03;;;;;;;4.18;2.42;;;;;;;10.86;100.00;99732.41;4844234;29;20566;-86
2022/10/22 02:11:32;;;;;;;4.63;2.47;;;;;;;10.89;100.00;99722.06;4845320;29;20121;-86
2022/10/22 02:14:04;;;;;;;6.50;2.83;;;;;;;10.91;100.00;99716.91;4845437;29;20061;-87
2022/10/22 02:16:37;;;;;;;7.77;3.57;;;;;;;10.94;100.00;99703.16;4844499;29;20066;-87
2022/10/22 02:19:13;;;;;;;4.60;3.17;;;;;;;10.95;100.00;99704.88;4839365;29;20046;-87
2022/10/22 02:21:41;;;;;;;10.77;3.53;;;;;;;10.96;100.00;99706.63;4847392;29;20054;-85
2022/10/22 02:24:10;;;;;;;10.65;4.40;;;;;;;10.97;100.00;99709.25;4844979;29;20050;-86
2022/10/22 02:26:43;;;;;;;5.47;3.60;;;;;;;10.97;100.00;99696.28;4850397;29;20046;-84
2022/10/22 02:29:16;;;;;;;10.77;3.78;;;;;;;10.98;100.00;99695.44;4847194;29;20094;-89
2022/10/22 02:31:47;;;;;;;;;;;;;;;11.01;100.00;99685.09;4842880;29;20050;-82
2022/10/22 02:34:22;;;;;;;6.38;3.53;;;;;;;11.02;100.00;99697.22;4835952;29;20009;-81
2022/10/22 02:36:52;;;;;;;8.82;3.78;;;;;;;11.02;100.00;99689.44;4840842;29;20054;-81
2022/10/22 02:39:21;;;;;;;8.68;4.15;;;;;;;11.00;100.00;99683.38;4831268;29;20050;-81
2022/10/22 02:41:50;;;;;;;6.97;3.65;;;;;;;10.99;100.00;99675.59;4840641;29;20050;-83
2022/10/22 02:44:22;;;;;;;7.03;3.85;;;;;;;10.96;100.00;99666.06;4831698;29;20056;-84
2022/10/22 02:46:52;;;;;;;;;;;;;;;10.98;100.00;99664.38;4834502;29;20064;-84
2022/10/22 02:49:21;;;;;;;7.50;4.40;;;;;;;10.99;100.00;99660.91;4838921;29;20858;-81
2022/10/22 02:51:49;;;;;;;6.25;3.38;;;;;;;10.91;100.00;99634.09;4834476;29;20054;-81
2022/10/22 02:54:18;;;;;;;8.32;4.60;;;;;;;10.97;100.00;99649.72;4840131;29;20133;-85
2022/10/22 02:56:46;;;;;;;4.80;3.45;;;;;;;10.98;100.00;99640.22;4834295;29;20046;-79
2022/10/22 02:59:15;;;;;;;8.38;4.50;;;;;;;10.98;100.00;99633.31;4833837;29;20050;-78
2022/10/22 03:01:43;;;;;;;7.25;4.15;;;;;;;10.99;100.00;99629.84;4833140;29;20519;-81
2022/10/22 03:04:13;;;;;;;5.35;3.75;;;;;;;11.02;100.00;99623.88;4835510;29;20058;-76
2022/10/22 03:06:43;;;;;;;7.60;4.65;;;;;;;11.04;100.00;99617.84;4836326;29;20477;-85
2022/10/22 03:09:12;;;;;;;6.15;3.90;;;;;;;11.05;100.00;99618.72;4841601;29;20046;-81
2022/10/22 03:11:40;;;;;;;7.80;4.13;;;;;;;11.06;100.00;99610.97;4839801;29;20090;-85
2022/10/22 03:14:09;;;;;;;5.88;3.70;;;;;;;11.06;100.00;99603.19;4836571;29;20559;-83
2022/10/22 03:16:37;;;;;;;8.10;4.38;;;;;;;11.02;100.00;99590.22;4835648;29;20125;-80
2022/10/22 03:19:06;;;;;;;7.18;4.25;;;;;;;11.10;100.00;99604.06;4833890;29;20057;-84
2022/10/22 03:21:39;;;;;;;5.43;3.38;;;;;;;11.07;100.00;99588.53;4828232;29;20050;-81
2022/10/22 03:24:14;;;;;;;6.15;3.53;;;;;;;11.02;100.00;99585.03;4837778;29;20053;-81
2022/10/22 03:26:43;;;;;;;7.97;4.10;;;;;;;11.01;100.00;99581.56;4834899;29;20498;-83
2022/10/22 03:29:15;;;;;;;6.15;3.83;;;;;;;10.98;100.00;99576.38;4828965;29;20062;-80
2022/10/22 03:31:43;;;;;;;7.55;4.65;;;;;;;10.99;100.00;99572.91;4839381;29;20070;-83
2022/10/22 03:34:12;;;;;;;8.35;3.95;;;;;;;10.98;100.00;99560.84;4837631;29;20046;-83
2022/10/22 03:36:42;;;;;;;9.68;4.55;;;;;;;10.94;100.00;99548.72;4832044;29;20667;-81
2022/10/22 03:39:14;;;;;;;7.80;4.00;;;;;;;10.92;100.00;99553.00;4836255;29;20065;-82
2022/10/22 03:41:43;;;;;;;7.82;3.67;;;;;;;10.93;100.00;99544.41;4839434;29;20106;-82
2022/10/22 03:44:12;;;;;;;7.43;4.45;;;;;;;10.97;100.00;99534.94;4836142;29;20092;-83
2022/10/22 03:46:40;;;;;;;7.88;4.30;;;;;;;11.00;100.00;99533.25;4836214;29;20094;-79
2022/10/22 03:49:09;;;;;;;8.52;3.55;;;;;;;11.02;100.00;99526.38;4840088;29;20507;-81
2022/10/22 03:51:37;;;;;;;6.90;3.05;;;;;;;11.07;100.00;99529.00;4840412;29;20449;-82
2022/10/22 03:54:08;;;;;;;5.50;3.28;;;;;;;11.08;100.00;99518.63;4836814;29;20047;-79
2022/10/22 03:56:36;;;;;;;4.80;3.05;;;;;;;11.16;100.00;99523.03;4835797;29;20052;-82
2022/10/22 03:59:05;;;;;;;2.60;2.05;;;;;;;11.25;100.00;99513.59;4841139;29;20556;-78
2022/10/22 04:01:33;;;;;;;5.50;2.28;;;;;;;11.33;100.00;99519.66;4839247;29;20060;-82
2022/10/22 04:04:02;;;;;;;2.92;1.50;;;;;;;11.43;100.00;99520.63;4831475;29;20119;-83
2022/10/22 04:06:31;;;;;;;3.92;1.70;;;;;;;11.52;100.00;99530.13;4840501;29;20042;-77
2022/10/22 04:09:01;;;;;;;1.85;1.17;;;;;;;11.62;100.00;99533.69;4831462;29;20067;-77
2022/10/22 04:11:31;;;;;;;3.17;1.45;;;;;;;11.67;100.00;99527.66;4840474;29;20046;-82
2022/10/22 04:14:00;;;;;;;4.00;1.23;;;;;;;11.71;100.00;99529.41;4840177;29;20182;-81
2022/10/22 04:16:30;;;;;;;4.47;1.13;;;;;;;11.78;100.00;99532.91;4833644;29;20057;-80
2022/10/22 04:18:59;;;;;;;1.60;0.65;;;;;;;11.81;100.00;99524.25;4831144;29;20061;-77
2022/10/22 04:21:27;;;;;;;1.13;0.80;;;;;;;11.85;100.00;99531.19;4833452;29;20053;-78
2022/10/22 04:23:56;;;;;;;1.85;1.05;;;;;;;11.90;100.00;99540.75;4835365;29;20054;-79
2022/10/22 04:26:25;;;;;;;3.75;1.10;;;;;;;11.95;100.00;99539.03;4841991;29;20049;-81
2022/10/22 04:28:55;;;;;;;2.92;0.73;;;;;;;12.02;100.00;99565.00;4835456;29;20425;-83
2022/10/22 04:31:25;;;;;;;2.20;0.90;;;;;;;12.08;100.00;99570.22;4841827;29;20052;-80
2022/10/22 04:33:55;;;;;;;1.98;0.95;;;;;;;12.15;100.00;99569.38;4841212;29;20049;-82
2022/10/22 04:36:24;;;;;;;4.13;1.05;;;;;;;12.21;100.00;99561.63;4840207;29;20078;-82
2022/10/22 04:38:55;;;;;;;2.88;1.00;;;;;;;12.27;100.00;99576.34;4846519;29;20050;-81
2022/10/22 04:41:26;;;;;;;1.27;0.65;;;;;;;12.33;100.00;99589.34;4844924;29;20050;-85
2022/10/22 04:43:57;;;;;;;3.53;0.82;;;;;;;12.38;100.00;99605.78;4847342;29;20094;-82
2022/10/22 04:46:27;;;;;;;0.40;0.40;;;;;;;12.43;100.00;99632.59;4842861;29;20065;-78
2022/10/22 04:48:56;;;;;;;0.82;0.60;;;;;;;12.48;100.00;99643.00;4846387;29;20061;-83
2022/10/22 04:51:25;;;;;;;2.45;0.90;;;;;;;12.44;100.00;99626.56;4854978;29;20054;-85
2022/10/22 04:53:54;;;;;;;7.50;1.20;;;;;;;12.55;100.00;99653.41;4873925;29;20058;-84
2022/10/22 04:56:24;;;;;;;3.67;1.60;;;;;;;12.59;100.00;99654.28;4854753;29;20069;-84
2022/10/22 04:58:54;;;;;;;3.33;1.67;;;;;;;12.63;100.00;99660.38;4847512;29;20543;-81
2022/10/22 05:01:25;;;;;;;2.53;1.45;;;;;;;12.66;100.00;99653.44;4839130;29;20050;-82
2022/10/22 05:03:56;;;;;;;3.72;1.48;;;;;;;12.68;100.00;99663.84;4846191;29;20061;-80
2022/10/22 05:06:25;;;;;;;1.30;0.80;;;;;;;12.67;100.00;99668.16;4835539;29;20065;-78
2022/10/22 05:08:58;;;;;;;0.82;0.47;;;;;;;12.54;100.00;99664.66;4840637;29;20118;-78
2022/10/22 05:11:29;;;;;;;1.88;0.57;;;;;;;12.59;100.00;99693.22;4831544;29;20469;-77
2022/10/22 05:13:59;;;;;;;1.10;0.73;;;;;;;12.57;100.00;99701.00;4838580;29;20050;-77
2022/10/22 05:16:29;;;;;;;1.55;0.45;;;;;;;12.51;100.00;99711.34;4836590;29;20083;-81
2022/10/22 05:19:00;;;;;;;0.32;0.20;;;;;;;12.44;100.00;99730.34;4842062;29;20084;-81
2022/10/22 05:21:29;;;;;;;0.40;0.20;;;;;;;12.36;100.00;99737.19;4840749;29;20053;-84
2022/10/22 05:24:00;;;;;;;0.43;0.43;;;;;;;12.29;100.00;99749.25;4840507;29;20489;-81
2022/10/22 05:26:29;;;;;;;0.10;0.10;;;;;;;12.22;100.00;99760.47;4832368;29;20073;-79
2022/10/22 05:29:01;;;;;;;0.65;0.25;;;;;;;12.17;100.00;99767.34;4841591;29;20496;-79
2022/10/22 05:31:31;;;;;;;0.57;0.30;;;;;;;12.12;100.00;99776.81;4838450;29;20042;-81
2022/10/22 05:33:59;;;;;;;0.38;0.20;;;;;;;12.08;100.00;99790.63;4848454;29;20050;-81
2022/10/22 05:36:28;;;;;;;0.73;0.30;;;;;;;12.02;100.00;99783.63;4841025;29;20046;-83
2022/10/22 05:38:58;;;;;;;0.15;0.15;;;;;;;11.95;100.00;99798.28;4846279;29;20572;-82
2022/10/22 05:41:28;;;;;;;0.00;0.00;;;;;;;11.90;100.00;99810.34;4841193;29;20050;-82
2022/10/22 05:43:57;;;;;;;0.00;0.00;;;;;;;11.85;100.00;99812.00;4831735;29;20058;-79
2022/10/22 05:46:28;;;;;;;0.15;0.13;;;;;;;11.81;100.00;99819.72;4835724;29;20073;-82
2022/10/22 05:48:59;;;;;;;0.57;0.22;;;;;;;11.74;100.00;99818.78;4833976;29;20440;-81
2022/10/22 05:51:30;;;;;;;1.05;0.10;;;;;;;11.69;100.00;99820.47;4836099;29;20050;-79
2022/10/22 05:54:00;;;;;;;0.25;0.17;;;;;;;11.67;100.00;99827.38;4838683;29;20527;-79
2022/10/22 05:56:30;;;;;;;0.25;0.15;;;;;;;11.64;100.00;99843.75;4840704;29;20052;-81
2022/10/22 05:58:59;;;;;;;0.10;0.10;;;;;;;11.61;100.00;99848.03;4839609;29;20050;-73
2022/10/22 06:01:30;;;;;;;0.03;0.03;;;;;;;11.54;100.00;99852.25;4841943;29;20046;-73
2022/10/22 06:04:02;;;;;;;0.68;0.20;;;;;;;11.51;100.00;99858.28;4835272;29;20061;-74
2022/10/22 06:06:33;;;;;;;0.25;0.10;;;;;;;11.47;100.00;99856.50;4839990;29;20046;-73
2022/10/22 06:09:05;;;;;;;0.10;0.08;;;;;;;11.39;100.00;99863.34;4838417;29;20500;-73
2022/10/22 06:11:33;;;;;;;0.13;0.10;;;;;;;11.31;100.00;99860.66;4835457;29;20050;-74
2022/10/22 06:14:02;;;;;;;0.00;0.00;;;;;;;11.29;100.00;99862.38;4838680;29;20334;-74
2022/10/22 06:16:31;;;;;;;0.10;0.00;;;;;;;11.26;100.00;99861.44;4833444;29;20103;-74
2022/10/22 06:19:02;;;;;;;0.28;0.10;;;;;;;11.21;100.00;99853.63;4829806;29;20057;-74
2022/10/22 06:21:31;;;;;;;4.28;0.30;;;;;;;11.21;100.00;99851.03;4839184;29;20504;-74
2022/10/22 06:24:01;;;;;;;1.52;0.10;;;;;;;11.18;100.00;99865.63;4839522;29;20050;-74
2022/10/22 06:26:30;;;;;;;0.17;0.10;;;;;;;11.15;100.00;99860.44;4833676;29;20497;-74
2022/10/22 06:28:59;;;;;;;0.50;0.20;;;;;;;11.14;100.00;99861.28;4839383;29;20050;-73
2022/10/22 06:31:28;;;;;;;0.20;0.10;;;;;;;11.11;100.00;99863.00;4826979;29;20054;-74
2022/10/22 06:33:58;;;;;;;0.17;0.17;;;;;;;11.13;100.00;99864.72;4833741;29;20082;-74
2022/10/22 06:36:28;;;;;;;0.17;0.08;;;;;;;11.12;100.00;99858.69;4838827;29;20504;-73
2022/10/22 06:38:57;;;;;;;0.20;0.10;;;;;;;11.12;100.00;99861.25;4838834;29;20057;-75
2022/10/22 06:41:26;;;;;;;0.20;0.10;;;;;;;11.10;100.00;99871.59;4839497;29;20050;-74
2022/10/22 06:43:56;;;;;;;0.13;0.10;;;;;;;11.11;100.00;99877.66;4837807;29;20062;-74
2022/10/22 06:46:24;;;;;;;0.20;0.00;;;;;;;11.10;100.00;99881.94;4832803;29;20050;-74
2022/10/22 06:48:54;;;;;;;0.30;0.10;;;;;;;11.09;100.00;99882.81;4840204;29;20638;-74
2022/10/22 06:51:23;;;;;;;0.95;0.20;;;;;;;11.09;100.00;99874.19;4834037;29;20137;-74
2022/10/22 06:53:54;;;;;;;0.90;0.10;;;;;;;11.08;100.00;99886.22;4833476;29;20064;-75
2022/10/22 06:56:25;;;;;;;0.10;0.10;;;;;;;11.07;100.00;99881.91;4833743;29;20054;-74
2022/10/22 06:58:55;;;;;;;0.40;0.10;;;;;;;11.04;100.00;99884.47;4836765;29;20042;-74
2022/10/22 07:01:25;;;;;;;0.30;0.20;;;;;;;11.03;100.00;99882.72;4830378;29;20057;-73
2022/10/22 07:03:54;;;;;;;0.55;0.10;;;;;;;11.01;100.00;99894.78;4834889;29;20079;-74
2022/10/22 07:06:24;;;;;;;0.13;0.08;;;;;;;10.99;100.00;99893.88;4833307;29;20397;-74
2022/10/22 07:08:55;;;;;;;0.10;0.10;;;;;;;10.97;100.00;99892.13;4830113;29;20717;-74
2022/10/22 07:11:25;;;;;;;0.10;0.10;;;;;;;10.96;100.00;99891.25;4835508;29;20114;-74
2022/10/22 07:13:55;;;;;;;0.20;0.10;;;;;;;10.95;100.00;99892.13;4835832;29;20050;-74
2022/10/22 07:16:24;;;;;;;0.22;0.10;;;;;;;10.92;100.00;99886.88;4835092;29;20073;-75
2022/10/22 07:18:53;;;;;;;0.10;0.05;;;;;;;10.90;100.00;99901.50;4837067;29;20050;-75
2022/10/22 07:21:22;;;;;;;0.10;0.10;;;;;;;10.89;100.00;99899.78;4838335;29;20413;-74
2022/10/22 07:23:50;;;;;;;0.05;0.05;;;;;;;10.84;100.00;99909.19;4837769;29;20062;-75
2022/10/22 07:26:20;;;;;;;0.15;0.10;;;;;;;10.77;100.00;99917.72;4837654;29;20042;-74
2022/10/22 07:28:49;;;;;;;0.45;0.10;;;;;;;10.65;100.00;99927.03;4827362;29;20065;-74
2022/10/22 07:31:19;;;;;;;0.17;0.10;;;;;;;10.54;100.00;99923.41;4833836;29;20049;-75
2022/10/22 07:33:48;;;;;;;0.40;0.30;;;;;;;10.42;100.00;99934.41;4834551;29;20057;-75
2022/10/22 07:36:17;;;;;;;0.77;0.47;;;;;;;10.33;100.00;99942.03;4836900;29;20073;-75
2022/10/22 07:38:47;;;;;;;0.30;0.20;;;;;;;10.31;100.00;99947.97;4833681;29;20057;-75
2022/10/22 07:41:16;;;;;;;0.63;0.22;;;;;;;10.32;100.00;99954.91;4834363;29;20463;-75
2022/10/22 07:43:46;;;;;;;0.57;0.20;;;;;;;10.29;100.00;99960.91;4832537;29;20046;-75
2022/10/22 07:46:15;;;;;;;0.28;0.10;;;;;;;10.29;100.00;99971.25;4838117;29;20054;-74
2022/10/22 07:48:43;;;;;;;0.40;0.10;;;;;;;10.21;100.00;99968.47;4839681;29;20061;-74
2022/10/22 07:51:12;;;;;;;0.15;0.08;;;;;;;10.13;100.00;99964.91;4838957;29;20057;-74
2022/10/22 07:53:40;;;;;;;0.00;0.00;;;;;;;10.09;100.00;99981.19;4837287;29;20077;-75
2022/10/22 07:56:09;;;;;;;0.00;0.00;;;;;;;10.08;100.00;99976.88;4839948;29;20050;-75
2022/10/22 07:58:38;;;;;;;0.00;0.00;;;;;;;10.08;100.00;99976.88;4838043;29;20511;-76
2022/10/22 08:01:08;;;;;;;3.67;0.20;;;;;;;10.07;100.00;99981.13;4843583;29;20062;-76
2022/10/22 08:03:37;;;;;;;0.20;0.03;;;;;;;10.10;100.00;99975.19;4841461;29;20064;-75
2022/10/22 08:06:06;;;;;;;0.10;0.10;;;;;;;10.10;100.00;99972.59;4842578;29;20057;-75
2022/10/22 08:08:35;;;;;;;0.38;0.10;;;;;;;10.12;100.00;99977.78;4828219;29;20046;-75
2022/10/22 08:11:03;;;;;;;0.08;0.08;;;;;;;10.09;100.00;99976.00;4837948;29;20129;-75
2022/10/22 08:13:32;;;;;;;0.15;0.10;;;;;;;10.04;100.00;99982.81;4829623;29;20050;-75
2022/10/22 08:16:01;;;;;;;0.10;0.10;;;;;;;10.03;100.00;99994.88;4836092;29;20054;-75
2022/10/22 08:18:32;;;;;;;1.40;0.25;;;;;;;10.04;100.00;100000.91;4841046;29;20512;-75
2022/10/22 08:21:00;;;;;;;0.15;0.10;;;;;;;10.06;100.00;100000.09;4841830;29;20169;-76
2022/10/22 08:23:29;;;;;;;0.25;0.20;;;;;;;10.06;100.00;100007.84;4841408;29;20085;-75
2022/10/22 08:25:58;;;;;;;0.20;0.00;;;;;;;10.07;100.00;99995.78;4836065;29;20054;-75
2022/10/22 08:28:28;;;;;;;1.02;0.10;;;;;;;10.06;100.00;99989.75;4841827;29;20169;-76
2022/10/22 08:30:57;;;;;;;0.25;0.10;;;;;;;10.05;100.00;99992.28;4839951;29;20049;-75
2022/10/22 08:33:26;;;;;;;3.13;0.38;;;;;;;10.06;100.00;99988.88;4839381;29;20053;-75
2022/10/22 08:35:56;;;;;;;0.10;0.10;;;;;;;10.05;100.00;99992.28;4836640;29;20049;-75
2022/10/22 08:38:25;;;;;;;0.20;0.20;;;;;;;10.03;100.00;99981.06;4837722;29;20052;-75
2022/10/22 08:41:08;;;;;;;0.30;0.20;;;;;;;10.06;100.00;99988.88;4843265;29;20050;-76
2022/10/22 08:43:55;;;;;;;;;;;;;;;10.09;100.00;99988.94;4839479;29;20074;-75
2022/10/22 08:46:39;;;;;;;0.10;0.00;;;;;;;10.11;100.00;99995.00;4835869;29;20022;-75
2022/10/22 08:49:17;;;;;;;0.20;0.00;;;;;;;10.13;100.00;99998.50;4841996;29;20473;-75
2022/10/22 08:51:47;;;;;;;0.10;0.00;;;;;;;10.17;100.00;100000.31;4838548;29;20070;-75
2022/10/22 08:54:25;;;;;;;0.45;0.30;;;;;;;10.21;100.00;100002.06;4841280;29;20053;-75
2022/10/22 08:57:05;;;;;;;0.00;0.00;;;;;;;10.18;100.00;99989.09;4829777;29;20077;-75
2022/10/22 08:59:49;;;;;;;0.40;0.10;;;;;;;10.31;100.00;99999.69;4841901;29;20066;-76
2022/10/22 09:02:37;;;;;;;0.00;0.00;;;;;;;10.33;100.00;99992.84;4833326;29;20299;-76
2022/10/22 09:05:22;;;;;;;0.00;0.00;;;;;;;10.34;100.00;99992.03;4825333;29;20050;-75
2022/10/22 09:07:53;;;;;;;0.20;0.10;;;;;;;10.33;100.00;99998.00;4835647;29;20046;-75
2022/10/22 09:10:26;;;;;;;0.00;0.00;;;;;;;10.33;100.00;99992.84;4830828;29;20465;-75
2022/10/22 09:12:55;;;;;;;0.10;0.10;;;;;;;10.35;100.00;99993.75;4838377;29;20042;-74
2022/10/22 09:15:23;;;;;;;0.10;0.10;;;;;;;10.37;100.00;99999.81;4835949;29;21243;-75
2022/10/22 09:18:06;;;;;;;0.10;0.10;;;;;;;10.38;100.00;99991.25;4839086;29;20148;-75
2022/10/22 09:20:46;;;;;;;0.05;0.00;;;;;;;10.36;100.00;99998.09;4841401;29;20089;-75
2022/10/22 09:23:27;;;;;;;0.10;0.10;;;;;;;10.35;100.00;99994.59;4837261;29;20129;-75
2022/10/22 09:25:57;;;;;;;0.17;0.10;;;;;;;10.35;100.00;99997.19;4833969;29;20542;-75
2022/10/22 09:28:26;;;;;;;0.85;0.17;;;;;;;10.34;100.00;99999.78;4836108;29;20049;-75
2022/10/22 09:30:55;;;;;;;0.80;0.00;;;;;;;10.34;100.00;100008.41;4838129;29;20241;-75
2022/10/22 09:33:27;;;;;;;0.75;0.10;;;;;;;10.33;100.00;100013.53;4838229;29;20141;-75
2022/10/22 09:36:02;;;;;;;0.08;0.05;;;;;;;10.33;100.00;100021.28;4834793;29;20049;-75
2022/10/22 09:38:33;;;;;;;0.10;0.10;;;;;;;10.26;100.00;100017.69;4835853;29;20069;-75
2022/10/22 09:41:04;;;;;;;0.13;0.10;;;;;;;10.33;100.00;100029.03;4838734;29;20141;-75
2022/10/22 09:43:34;;;;;;;3.95;0.20;;;;;;;10.36;100.00;100029.13;4829632;29;20049;-75
2022/10/22 09:46:05;;;;;;;2.60;0.25;;;;;;;10.36;100.00;100040.34;4834857;29;20129;-74
2022/10/22 09:48:36;;;;;;;0.55;0.20;;;;;;;10.34;100.00;100042.00;4834623;29;20050;-75
2022/10/22 09:51:19;;;;;;;0.10;0.10;;;;;;;10.33;100.00;100044.56;4833105;29;20050;-76
2022/10/22 09:53:57;;;;;;;0.20;0.10;;;;;;;10.27;100.00;100051.34;4831438;29;20053;-75
2022/10/22 09:56:28;;;;;;;0.10;0.10;;;;;;;10.24;100.00;100050.41;4839387;29;20058;-75
2022/10/22 09:58:58;;;;;;;0.10;0.10;;;;;;;10.24;100.00;100056.47;4835591;29;20085;-75
2022/10/22 10:01:29;;;;;;;1.20;0.00;;;;;;;10.26;100.00;100053.88;4838419;29;20057;-75
2022/10/22 10:04:04;;;;;;;0.10;0.10;;;;;;;10.26;100.00;100052.19;4839415;29;20046;-75
2022/10/22 10:06:35;;;;;;;0.00;0.00;;;;;;;10.27;100.00;100053.91;4837555;29;20053;-74
2022/10/22 10:09:14;;;;;;;0.80;0.05;;;;;;;10.30;100.00;100052.28;4837025;29;20089;-75
2022/10/22 10:11:47;;;;;;;2.22;0.15;;;;;;;10.30;100.00;100055.72;4839709;29;20050;-75
2022/10/22 10:14:22;;;;;;;0.08;0.08;;;;;;;10.32;100.00;100068.69;4836471;29;20096;-75
2022/10/22 10:16:59;;;;;;;0.20;0.20;;;;;;;10.33;100.00;100065.25;4831300;29;20054;-74
2022/10/22 10:19:48;;;;;;;0.10;0.10;;;;;;;10.35;100.00;100061.84;4825211;29;20680;-75
2022/10/22 10:22:32;;;;;;;0.00;0.00;;;;;;;10.36;100.00;100066.19;4829785;29;20088;-74
2022/10/22 10:25:20;;;;;;;0.10;0.10;;;;;;;10.37;100.00;100064.47;4838424;29;20054;-74
2022/10/22 10:27:57;;;;;;;0.30;0.10;;;;;;;10.38;100.00;100058.47;4838541;29;20057;-74
2022/10/22 10:30:26;;;;;;;0.17;0.10;;;;;;;10.41;100.00;100071.44;4828410;29;20137;-74
2022/10/22 10:33:18;;;;;;;0.10;0.10;;;;;;;10.42;100.00;100062.84;4838331;29;20092;-74
2022/10/22 10:35:55;;;;;;;0.10;0.10;;;;;;;10.45;100.00;100065.50;4834053;29;20066;-74
2022/10/22 10:38:51;;;;;;;0.17;0.10;;;;;;;10.46;100.00;100068.09;4834426;29;20510;-74
2022/10/22 10:41:30;;;;;;;0.20;0.20;;;;;;;10.47;100.00;100064.69;4829764;29;20062;-75
2022/10/22 10:44:32;;;;;;;0.00;0.00;;;;;;;10.47;100.00;100063.81;4833430;29;20129;-75
2022/10/22 10:47:13;;;;;;;5.07;0.50;;;;;;;10.46;100.00;100056.88;4830928;29;20085;-75
2022/10/22 10:49:44;;;;;;;0.10;0.10;;;;;;;10.46;100.00;100056.88;4835554;29;20524;-75
2022/10/22 10:52:31;;;;;;;0.28;0.00;;;;;;;10.48;100.00;100057.78;4839199;29;20077;-75
2022/10/22 10:55:16;;;;;;;0.13;0.10;;;;;;;10.48;100.00;100045.72;4831627;29;20049;-76
2022/10/22 10:57:58;;;;;;;0.20;0.05;;;;;;;10.50;100.00;100055.25;4839019;29;20073;-76
2022/10/22 11:00:28;;;;;;;0.08;0.08;;;;;;;10.50;100.00;100056.09;4833453;29;20585;-76
2022/10/22 11:03:25;;;;;;;0.00;0.00;;;;;;;10.50;100.00;100060.41;4837335;29;20094;-76
2022/10/22 11:05:57;;;;;;;0.20;0.10;;;;;;;10.50;100.00;100070.75;4837699;29;20085;-76
2022/10/22 11:08:30;;;;;;;0.50;0.50;;;;;;;10.50;100.00;100069.03;4827862;29;20055;-74
2022/10/22 11:11:11;;;;;;;0.00;0.00;;;;;;;10.52;100.00;100066.50;4837137;29;20054;-73
2022/10/22 11:13:47;;;;;;;0.43;0.10;;;;;;;10.54;100.00;100069.97;4833961;29;20145;-73
2022/10/22 11:16:24;;;;;;;0.90;0.30;;;;;;;10.53;100.00;100066.50;4838519;29;20096;-73
2022/10/22 11:19:01;;;;;;;0.38;0.25;;;;;;;10.52;100.00;100071.66;4838796;29;20125;-73
2022/10/22 11:21:35;;;;;;;0.10;0.10;;;;;;;10.52;100.00;100066.50;4836558;29;20180;-73
2022/10/22 11:24:13;;;;;;;0.20;0.10;;;;;;;10.51;100.00;100064.72;4840058;29;20050;-73
2022/10/22 11:26:48;;;;;;;0.40;0.30;;;;;;;10.50;100.00;100069.03;4838201;29;20050;-73
2022/10/22 11:29:23;;;;;;;0.57;0.28;;;;;;;10.48;100.00;100062.97;4839800;29;20078;-73
2022/10/22 11:31:54;;;;;;;0.40;0.20;;;;;;;10.46;100.00;100062.06;4839455;29;20046;-73
2022/10/22 11:34:27;;;;;;;3.95;0.40;;;;;;;10.33;100.00;100044.56;4844165;29;20149;-72
2022/10/22 11:36:56;;;;;;;;;;;;;;;10.41;100.00;100063.69;4845271;29;20057;-72
2022/10/22 11:39:32;;;;;;;1.50;0.38;;;;;;;10.45;100.00;100073.25;4842990;29;19960;-72
2022/10/22 11:42:03;;;;;;;1.08;0.20;;;;;;;10.45;100.00;100070.69;4843153;29;20042;-72
2022/10/22 11:44:45;;;;;;;0.55;0.25;;;;;;;10.47;100.00;100063.81;4839475;29;20054;-72
2022/10/22 11:47:20;;;;;;;0.10;0.10;;;;;;;10.47;100.00;100063.81;4838543;29;20106;-72